New Orleans, LA (70145)

12:39 PM CDT on March 30, 2015 (GMT -0500)
Gentilly Terrace | | Change Station
CLOSE
Current Station
Personal Weather Station
Location: New Orleans, LA
Elevation: 15 ft
Nearby Weather Stations

Elev 15 ft 30.00 °N, 90.05 °W | Updated 1 second ago

Mostly Cloudy
Mostly Cloudy
76.9 °F
Feels Like 79 °F
N
1.0
Wind Variable Wind from WNW
Gusts 2.0 mph

Today
High -- | Low -- °F
--% Chance of Precip.
Yesterday
High -- | Low -- °F
Precip. -- in
6:52 AM 7:17 PM
Waxing Gibbous, 81% visible
Pressure 30.23 in
Visibility 10.0 miles
Clouds Few 3300 ft
Scattered Clouds 4400 ft
Mostly Cloudy 5500 ft
Heat Index 79 °F
Dew Point 68 °F
Humidity 73%
Rainfall 0.00 in
Snow Depth Not available.
UV 5 out of 12
Pollen 10.20 out of 12
Air Quality Not available.
Flu Activity Not available.
METAR KNEW 301653Z 34007KT 10SM FEW033 SCT044 BKN055 24/18 A3025 RMK AO2 SLP237 T02440178

More Conditions Fewer Conditions

Pressure 30.23 in
Visibility 10.0 miles
Clouds Few 3300 ft
Scattered Clouds 4400 ft
Mostly Cloudy 5500 ft
Heat Index 79 °F
Dew Point 68 °F
Humidity 73%
Rainfall 0.00 in
Snow Depth Not available.
UV 5 out of 12
Pollen 10.20 out of 12
Air Quality Not available.
Flu Activity Not available.
METAR KNEW 301653Z 34007KT 10SM FEW033 SCT044 BKN055 24/18 A3025 RMK AO2 SLP237 T02440178

More Conditions Fewer Conditions

10-Day Weather Forecast

Almanac

Astronomy

Mar. 30, 2015 Rise Set
Actual Time
Civil Twilight
Nautical Twilight
Astronomical Twilight
Moon
Length of Visible Light
Length of Day
Tomorrow will be .
, % of the Moon is Illuminated

Today's Extremes

State Highs State Lows

Community

WunderPhotos

Upload Photos

1,809,545 photos uploaded!

WunderBlogs® & News

Nearby

Air Quality

  Air Quality AQ Index Pollutant
Not available.

Snow Depth

Station Depth Elevation

Earthquake Activity

City Distance Mag. Time & Date
Minimum magnitude displayed is 2.5.

Coastal Water Temperatures

Place Temperature

Stations

Nearby Weather Stations

Station Location Temp. Windchill Dew Point Humidity Wind Precip. Elev Updated Type